Time;durP1;ratioP1;P1;durP2;ratioP2;P2;SDS_P1;SDS_P2;PMS_P1;PMS_P2;Temp;Humidity;BMP_temperature;BMP_pressure;BME280_temperature;BME280_humidity;BME280_pressure;Samples;Min_cycle;Max_cycle;Signal;HPM_P1;HPM_P2
2022/05/16 00:00:26;;;;;;;7.00;1.98;;;20.40;64.60;;;;;;5079019;28;20047;-81
2022/05/16 00:02:55;;;;;;;6.53;1.73;;;20.40;64.40;;;;;;5058512;28;20101;-81
2022/05/16 00:05:23;;;;;;;4.93;1.60;;;20.40;64.40;;;;;;5082194;28;20503;-81
2022/05/16 00:07:49;;;;;;;8.20;1.67;;;20.40;64.40;;;;;;5078011;28;20044;-80
2022/05/16 00:10:17;;;;;;;5.20;1.75;;;20.40;64.40;;;;;;5080016;28;20055;-81
2022/05/16 00:12:44;;;;;;;4.95;1.73;;;20.40;64.40;;;;;;5078525;28;20093;-81
2022/05/16 00:15:13;;;;;;;4.80;1.80;;;20.40;64.40;;;;;;5075947;28;20045;-81
2022/05/16 00:17:40;;;;;;;5.80;1.55;;;20.40;64.30;;;;;;5076863;28;20165;-81
2022/05/16 00:20:08;;;;;;;6.85;1.70;;;20.40;64.40;;;;;;5082114;28;20052;-81
2022/05/16 00:22:35;;;;;;;4.07;1.52;;;20.40;64.30;;;;;;5077985;28;20048;-81
2022/05/16 00:25:06;;;;;;;4.70;1.52;;;20.40;64.40;;;;;;5079051;28;20460;-81
2022/05/16 00:27:34;;;;;;;4.90;1.73;;;20.40;64.40;;;;;;5077467;28;20044;-81
2022/05/16 00:30:07;;;;;;;3.63;1.48;;;20.40;64.50;;;;;;5070936;28;20106;-81
2022/05/16 00:32:35;;;;;;;5.03;1.63;;;20.40;64.50;;;;;;5074018;28;20093;-81
2022/05/16 00:35:03;;;;;;;5.18;1.83;;;20.40;64.50;;;;;;5078550;28;20055;-81
2022/05/16 00:37:30;;;;;;;5.05;1.80;;;20.40;64.60;;;;;;5075051;28;20075;-81
2022/05/16 00:39:57;;;;;;;3.70;1.60;;;20.40;64.70;;;;;;5076246;28;20097;-81
2022/05/16 00:42:24;;;;;;;4.45;1.88;;;20.40;64.70;;;;;;5074753;28;20052;-80
2022/05/16 00:44:51;;;;;;;7.35;2.10;;;20.40;64.80;;;;;;5054355;28;20132;-81
2022/05/16 00:47:18;;;;;;;8.18;2.53;;;20.40;64.80;;;;;;5078749;28;20580;-82
2022/05/16 00:49:48;;;;;;;7.22;2.00;;;20.30;64.90;;;;;;5074587;28;20572;-81
2022/05/16 00:52:25;;;;;;;6.63;1.90;;;20.30;65.00;;;;;;5074558;28;20048;-81
2022/05/16 00:54:56;;;;;;;10.20;1.80;;;20.40;65.00;;;;;;5074125;28;20098;-81
2022/05/16 00:57:28;;;;;;;3.85;1.48;;;20.40;65.10;;;;;;5069811;28;20514;-82
2022/05/16 01:00:11;;;;;;;7.22;1.80;;;20.40;65.10;;;;;;5056078;28;20048;-82
2022/05/16 01:05:28;;;;;;;5.10;2.00;;;20.30;65.20;;;;;;5069907;28;20127;-82
2022/05/16 01:08:08;;;;;;;7.38;1.80;;;20.30;65.20;;;;;;5070714;28;20106;-81
2022/05/16 01:10:35;;;;;;;6.25;1.92;;;20.30;65.30;;;;;;5071475;28;20049;-81
2022/05/16 01:13:04;;;;;;;4.90;1.90;;;20.30;65.30;;;;;;5066961;28;20049;-82
2022/05/16 01:15:45;;;;;;;5.90;2.20;;;20.30;65.30;;;;;;5072062;28;20465;-82
2022/05/16 01:18:15;;;;;;;8.48;2.15;;;20.30;65.30;;;;;;5073578;28;20044;-82
2022/05/16 01:21:04;;;;;;;5.53;1.85;;;20.30;65.30;;;;;;5073348;28;20135;-82
2022/05/16 01:23:53;;;;;;;6.25;1.75;;;20.30;65.30;;;;;;5070885;28;20052;-82
2022/05/16 01:26:24;;;;;;;7.05;1.73;;;20.30;65.30;;;;;;5058147;28;20048;-82
2022/05/16 01:28:53;;;;;;;7.32;1.73;;;20.20;65.30;;;;;;5072808;28;20110;-81
2022/05/16 01:31:21;;;;;;;6.32;1.50;;;20.30;65.30;;;;;;5073187;28;20044;-82
2022/05/16 01:33:48;;;;;;;5.03;1.80;;;20.30;65.30;;;;;;5073183;28;20048;-81
2022/05/16 01:36:15;;;;;;;4.80;1.63;;;20.30;65.30;;;;;;5073113;28;20176;-82
2022/05/16 01:38:42;;;;;;;6.00;1.58;;;20.30;65.30;;;;;;5073122;28;20052;-82
2022/05/16 01:41:15;;;;;;;4.70;1.80;;;20.30;65.30;;;;;;5072399;28;20490;-82
2022/05/16 01:43:46;;;;;;;6.20;2.00;;;20.30;65.30;;;;;;5073041;28;20056;-82
2022/05/16 01:46:16;;;;;;;6.43;1.73;;;20.30;65.30;;;;;;5072837;28;20090;-82
2022/05/16 01:48:43;;;;;;;5.15;1.63;;;20.30;65.30;;;;;;5072729;28;20052;-82
2022/05/16 01:51:12;;;;;;;5.57;1.70;;;20.30;65.30;;;;;;5072836;28;20090;-82
2022/05/16 01:53:41;;;;;;;4.47;1.60;;;20.30;65.30;;;;;;5072806;28;20083;-81
2022/05/16 01:56:09;;;;;;;3.45;1.52;;;20.30;65.30;;;;;;5072971;28;20044;-82
2022/05/16 01:58:36;;;;;;;4.60;1.50;;;20.30;65.30;;;;;;5072647;28;20044;-82
2022/05/16 02:01:04;;;;;;;4.13;1.42;;;20.30;65.30;;;;;;5072621;28;20040;-82
2022/05/16 02:03:31;;;;;;;6.78;1.95;;;20.30;65.40;;;;;;5072536;28;20062;-81
2022/05/16 02:05:58;;;;;;;6.32;1.80;;;20.30;65.40;;;;;;5072504;28;20048;-81
2022/05/16 02:08:25;;;;;;;4.18;1.65;;;20.20;65.40;;;;;;5072824;28;20048;-82
2022/05/16 02:10:52;;;;;;;4.97;1.77;;;20.30;65.40;;;;;;5072411;28;20078;-82
2022/05/16 02:13:19;;;;;;;5.82;1.95;;;20.20;65.40;;;;;;5072401;28;20049;-82
2022/05/16 02:15:46;;;;;;;4.22;1.42;;;20.20;65.40;;;;;;5072286;28;20052;-81
2022/05/16 02:18:13;;;;;;;7.00;1.70;;;20.20;65.50;;;;;;5072262;28;20101;-81
2022/05/16 02:20:40;;;;;;;5.78;1.70;;;20.20;65.50;;;;;;5072140;28;20048;-82
2022/05/16 02:25:57;;;;;;;3.78;1.48;;;20.20;65.50;;;;;;5071230;28;20098;-82
2022/05/16 02:28:24;;;;;;;7.15;1.80;;;20.10;65.60;;;;;;5071984;28;20052;-82
2022/05/16 02:30:53;;;;;;;3.38;1.70;;;20.10;65.60;;;;;;5072016;28;20093;-81
2022/05/16 02:33:21;;;;;;;5.55;1.70;;;20.10;65.70;;;;;;5072089;28;20056;-81
2022/05/16 02:35:48;;;;;;;4.35;1.60;;;20.10;65.70;;;;;;5072077;28;20090;-82
2022/05/16 02:38:17;;;;;;;7.30;1.90;;;20.10;65.80;;;;;;5072699;28;20102;-81
2022/05/16 02:40:44;;;;;;;5.13;1.65;;;20.10;65.80;;;;;;5071513;28;20041;-81
2022/05/16 02:43:10;;;;;;;3.72;1.58;;;20.10;65.90;;;;;;5071752;28;20090;-81
2022/05/16 02:45:37;;;;;;;6.43;1.80;;;20.10;66.00;;;;;;5071867;28;20447;-81
2022/05/16 02:48:05;;;;;;;10.77;2.40;;;20.10;66.00;;;;;;5071820;28;20094;-82
2022/05/16 02:50:32;;;;;;;6.63;1.80;;;20.00;66.00;;;;;;5072083;28;20214;-81
2022/05/16 02:52:59;;;;;;;5.28;2.03;;;20.00;66.10;;;;;;5071965;28;20044;-81
2022/05/16 02:55:26;;;;;;;3.95;1.70;;;20.00;66.20;;;;;;5071296;28;20106;-82
2022/05/16 02:57:53;;;;;;;4.82;1.80;;;20.00;66.20;;;;;;5071573;28;20045;-81
2022/05/16 03:00:20;;;;;;;5.03;1.73;;;19.90;66.20;;;;;;5071865;28;20048;-82
2022/05/16 03:02:47;;;;;;;3.78;1.50;;;19.90;66.30;;;;;;5071804;28;20094;-82
2022/05/16 03:05:15;;;;;;;2.92;1.38;;;19.90;66.40;;;;;;5071074;28;20052;-82
2022/05/16 03:07:43;;;;;;;5.32;1.70;;;19.90;66.40;;;;;;5071614;28;20055;-82
2022/05/16 03:10:15;;;;;;;5.38;1.63;;;19.90;66.50;;;;;;5071249;28;20049;-82
2022/05/16 03:12:45;;;;;;;5.18;1.60;;;19.90;66.50;;;;;;5071491;28;20511;-82
2022/05/16 03:15:13;;;;;;;3.45;1.42;;;19.80;66.60;;;;;;5071564;28;20044;-82
2022/05/16 03:17:42;;;;;;;4.72;1.80;;;19.80;66.60;;;;;;5071604;28;20562;-81
2022/05/16 03:20:12;;;;;;;5.32;1.73;;;19.70;66.60;;;;;;5071980;28;20060;-82
2022/05/16 03:22:39;;;;;;;4.88;1.70;;;19.70;66.70;;;;;;5071430;28;20075;-82
2022/05/16 03:25:06;;;;;;;4.18;1.70;;;19.70;66.70;;;;;;5071074;28;20045;-81
2022/05/16 03:27:33;;;;;;;9.55;1.90;;;19.60;66.70;;;;;;5071502;28;20044;-82
2022/05/16 03:30:00;;;;;;;6.35;1.70;;;19.60;66.80;;;;;;5071390;28;20049;-81
2022/05/16 03:32:27;;;;;;;6.30;1.80;;;19.60;66.90;;;;;;5071730;28;20077;-81
2022/05/16 03:34:54;;;;;;;6.88;2.00;;;19.50;67.00;;;;;;5071570;28;20422;-81
2022/05/16 03:37:22;;;;;;;4.43;1.65;;;19.50;67.00;;;;;;5070833;28;20041;-81
2022/05/16 03:42:34;;;;;;;5.95;1.35;;;19.40;67.10;;;;;;5071244;28;20098;-81
2022/05/16 03:45:02;;;;;;;5.32;1.90;;;19.40;67.20;;;;;;5071435;28;20044;-81
2022/05/16 03:47:29;;;;;;;4.72;2.00;;;19.40;67.30;;;;;;5071603;28;20094;-81
2022/05/16 03:49:56;;;;;;;7.15;2.00;;;19.40;67.40;;;;;;5070810;28;20106;-81
2022/05/16 03:52:23;;;;;;;6.15;2.15;;;19.30;67.50;;;;;;5070907;28;20052;-81
2022/05/16 03:54:50;;;;;;;4.70;1.90;;;19.30;67.50;;;;;;5071048;28;20041;-81
2022/05/16 03:57:17;;;;;;;6.70;2.05;;;19.20;67.60;;;;;;5071268;28;20102;-81
2022/05/16 03:59:44;;;;;;;4.60;1.90;;;19.20;67.70;;;;;;5071242;28;20045;-81
2022/05/16 04:02:10;;;;;;;6.32;2.30;;;19.10;67.80;;;;;;5071711;28;20052;-81
2022/05/16 04:04:37;;;;;;;5.78;2.20;;;19.10;67.90;;;;;;5073554;28;20072;-81
2022/05/16 04:07:05;;;;;;;6.82;2.38;;;19.00;68.00;;;;;;5074559;28;20048;-81
2022/05/16 04:09:31;;;;;;;5.20;1.98;;;19.00;68.10;;;;;;5074652;28;20057;-81
2022/05/16 04:11:58;;;;;;;6.78;2.20;;;19.00;68.20;;;;;;5074742;28;20576;-81
2022/05/16 04:14:25;;;;;;;7.63;2.33;;;18.90;68.30;;;;;;5074881;28;20465;-81
2022/05/16 04:16:52;;;;;;;6.75;2.50;;;18.90;68.40;;;;;;5074587;28;20510;-81
2022/05/16 04:19:19;;;;;;;4.72;1.95;;;18.90;68.60;;;;;;5074391;28;20059;-81
2022/05/16 04:21:46;;;;;;;5.72;1.90;;;18.90;68.70;;;;;;5074207;28;20053;-80
2022/05/16 04:24:13;;;;;;;9.80;2.15;;;18.90;68.80;;;;;;5074536;28;20048;-81
2022/05/16 04:26:40;;;;;;;10.57;2.17;;;18.80;68.90;;;;;;5074515;28;20392;-81
2022/05/16 04:29:06;;;;;;;6.15;2.30;;;18.80;69.00;;;;;;5074910;28;20082;-81
2022/05/16 04:31:34;;;;;;;5.30;1.90;;;18.80;69.10;;;;;;5074336;28;20075;-81
2022/05/16 04:34:01;;;;;;;7.57;2.22;;;18.80;69.20;;;;;;5074294;28;20044;-81
2022/05/16 04:36:27;;;;;;;6.47;2.28;;;18.80;69.30;;;;;;5073824;28;20713;-81
2022/05/16 04:38:54;;;;;;;5.70;2.17;;;18.70;69.40;;;;;;5074354;28;20091;-82
2022/05/16 04:44:08;;;;;;;4.97;2.20;;;18.70;69.60;;;;;;5073258;28;20052;-81
2022/05/16 04:46:35;;;;;;;8.20;2.55;;;18.70;69.80;;;;;;5073987;28;20045;-82
2022/05/16 04:49:02;;;;;;;6.53;2.35;;;18.70;69.90;;;;;;5074029;28;20052;-81
2022/05/16 04:51:29;;;;;;;10.93;2.67;;;18.70;70.00;;;;;;5073665;28;20118;-81
2022/05/16 04:53:57;;;;;;;5.55;2.30;;;18.70;70.00;;;;;;5073929;28;20102;-81
2022/05/16 04:56:23;;;;;;;9.75;2.55;;;18.70;70.10;;;;;;5074509;28;20048;-81
2022/05/16 04:58:50;;;;;;;6.63;2.28;;;18.70;70.10;;;;;;5074113;28;20052;-81
2022/05/16 05:01:17;;;;;;;7.28;2.30;;;18.80;70.20;;;;;;5073773;28;20091;-81
2022/05/16 05:03:44;;;;;;;6.20;2.15;;;18.70;70.20;;;;;;5073709;28;20109;-81
2022/05/16 05:06:11;;;;;;;5.00;2.00;;;18.70;70.30;;;;;;5073373;28;20040;-81
2022/05/16 05:08:38;;;;;;;9.02;2.38;;;18.80;70.30;;;;;;5073580;28;20452;-81
2022/05/16 05:16:37;;;;;;;7.88;2.35;;;18.80;70.40;;;;;;5073482;28;20052;-81
2022/05/16 05:19:05;;;;;;;10.13;2.50;;;18.80;70.40;;;;;;5072953;28;20049;-81
2022/05/16 05:21:32;;;;;;;7.50;2.33;;;18.80;70.40;;;;;;5073453;28;20053;-81
2022/05/16 05:24:00;;;;;;;7.03;2.28;;;18.80;70.40;;;;;;5073512;28;20499;-82
2022/05/16 05:26:27;;;;;;;6.40;2.90;;;18.80;70.50;;;;;;5073539;28;20048;-81
2022/05/16 05:28:54;;;;;;;7.85;2.08;;;18.80;70.60;;;;;;5073599;28;20048;-81
2022/05/16 05:31:25;;;;;;;7.50;2.28;;;18.80;70.60;;;;;;5073069;28;20094;-81
2022/05/16 05:33:55;;;;;;;8.15;2.53;;;18.80;70.70;;;;;;5072702;28;20040;-81
2022/05/16 05:36:24;;;;;;;10.48;2.70;;;18.80;70.70;;;;;;5073260;28;20054;-81
2022/05/16 05:38:51;;;;;;;8.10;2.70;;;18.80;70.80;;;;;;5073288;28;20048;-81
2022/05/16 05:41:22;;;;;;;7.82;2.88;;;18.80;70.90;;;;;;5073587;28;20053;-81
2022/05/16 05:43:49;;;;;;;9.60;2.85;;;18.80;71.00;;;;;;5073158;28;20110;-81
2022/05/16 05:46:16;;;;;;;8.45;2.92;;;18.80;71.10;;;;;;5072852;28;20458;-81
2022/05/16 05:48:44;;;;;;;9.20;3.00;;;18.80;71.30;;;;;;5072507;28;20055;-81
2022/05/16 05:51:12;;;;;;;6.60;3.20;;;18.80;71.40;;;;;;5072988;28;20086;-81
2022/05/16 05:53:41;;;;;;;11.02;4.30;;;18.90;71.50;;;;;;5072896;28;20052;-81
2022/05/16 05:56:10;;;;;;;8.15;4.60;;;18.90;71.60;;;;;;5073249;28;20062;-81
2022/05/16 05:58:37;;;;;;;11.43;4.28;;;18.90;71.70;;;;;;5072666;28;20091;-81
2022/05/16 06:01:08;;;;;;;8.40;4.82;;;18.90;71.80;;;;;;5072727;28;20047;-81
2022/05/16 06:03:35;;;;;;;8.07;4.80;;;18.90;71.90;;;;;;5072184;28;20498;-81
2022/05/16 06:06:03;;;;;;;12.00;5.57;;;18.90;71.90;;;;;;5072625;28;20132;-81
2022/05/16 06:08:30;;;;;;;10.52;5.15;;;18.90;72.00;;;;;;5072642;28;20049;-81
2022/05/16 06:10:57;;;;;;;10.57;5.68;;;18.90;72.10;;;;;;5070083;28;20057;-81
2022/05/16 06:13:23;;;;;;;10.50;5.53;;;18.90;72.20;;;;;;5072388;28;20109;-81
2022/05/16 06:15:50;;;;;;;11.02;5.85;;;18.90;72.20;;;;;;5072281;28;20049;-81
2022/05/16 06:18:17;;;;;;;11.20;5.88;;;18.90;72.30;;;;;;5072058;28;20453;-81
2022/05/16 06:20:44;;;;;;;10.57;5.47;;;18.90;72.30;;;;;;5072075;28;20056;-81
2022/05/16 06:23:11;;;;;;;9.63;5.70;;;18.90;72.50;;;;;;5072759;28;20419;-81
2022/05/16 06:25:43;;;;;;;9.80;5.50;;;18.90;72.60;;;;;;5071804;28;20098;-81
2022/05/16 06:28:16;;;;;;;7.70;5.05;;;18.90;72.60;;;;;;5070800;28;20093;-81
2022/05/16 06:30:45;;;;;;;14.23;6.13;;;18.90;72.70;;;;;;5062786;28;20045;-82
2022/05/16 06:33:13;;;;;;;9.40;6.15;;;19.00;72.80;;;;;;5070552;28;20101;-81
2022/05/16 06:35:40;;;;;;;9.43;5.50;;;19.00;72.90;;;;;;5071068;28;20576;-82
2022/05/16 06:38:10;;;;;;;9.85;6.03;;;19.00;72.90;;;;;;5071773;28;20587;-82
2022/05/16 06:40:39;;;;;;;15.07;6.20;;;19.00;73.00;;;;;;5071191;28;20048;-82
2022/05/16 06:43:07;;;;;;;12.02;5.95;;;19.00;73.00;;;;;;5071381;28;20044;-81
2022/05/16 06:45:35;;;;;;;12.43;5.68;;;19.10;73.00;;;;;;5071279;28;20071;-81
2022/05/16 06:48:03;;;;;;;11.90;5.57;;;19.10;72.90;;;;;;5071279;28;20040;-81
2022/05/16 06:50:31;;;;;;;14.05;5.15;;;19.10;72.90;;;;;;5071238;28;20052;-81
2022/05/16 06:52:59;;;;;;;11.52;5.75;;;19.10;72.90;;;;;;5070884;28;20098;-81
2022/05/16 06:55:26;;;;;;;17.02;5.25;;;19.10;72.90;;;;;;5071231;28;20048;-81
2022/05/16 06:57:56;;;;;;;11.75;4.90;;;19.10;72.80;;;;;;5071042;28;20068;-81
2022/05/16 07:00:24;;;;;;;12.82;5.63;;;19.10;72.80;;;;;;5071001;28;20048;-81
2022/05/16 07:02:51;;;;;;;11.13;5.00;;;19.20;72.70;;;;;;5071029;28;20041;-81
2022/05/16 07:05:38;;;;;;;9.63;5.03;;;19.20;72.60;;;;;;5069392;28;20076;-80
2022/05/16 07:08:06;;;;;;;11.02;5.10;;;19.20;72.50;;;;;;5071588;28;20098;-81
2022/05/16 07:10:33;;;;;;;13.68;5.38;;;19.30;72.30;;;;;;5070852;28;20053;-80
2022/05/16 07:13:00;;;;;;;15.88;5.25;;;19.20;72.10;;;;;;5070997;28;20041;-80
2022/05/16 07:15:27;;;;;;;15.70;5.10;;;19.20;72.00;;;;;;5070740;28;20052;-80
2022/05/16 07:17:54;;;;;;;18.13;5.28;;;19.30;71.90;;;;;;5070951;28;20094;-81
2022/05/16 07:20:21;;;;;;;16.13;4.93;;;19.30;71.80;;;;;;5071545;28;20056;-81
2022/05/16 07:22:48;;;;;;;11.65;4.93;;;19.30;71.70;;;;;;5070745;28;20048;-81
2022/05/16 07:25:19;;;;;;;13.55;4.80;;;19.30;71.60;;;;;;5070712;28;20075;-81
2022/05/16 07:28:01;;;;;;;13.60;4.68;;;19.30;71.60;;;;;;5070913;28;20080;-81
2022/05/16 07:30:34;;;;;;;10.05;4.85;;;19.30;71.60;;;;;;5070017;28;20519;-81
2022/05/16 07:33:02;;;;;;;12.93;5.28;;;19.30;71.60;;;;;;5070727;28;20456;-82
2022/05/16 07:35:33;;;;;;;12.75;5.38;;;19.30;71.70;;;;;;5071094;28;20049;-80
2022/05/16 07:38:00;;;;;;;13.30;5.43;;;19.30;71.70;;;;;;5070333;28;20049;-81
2022/05/16 07:40:33;;;;;;;11.85;5.20;;;19.30;71.70;;;;;;5071081;28;20048;-81
2022/05/16 07:43:00;;;;;;;13.13;5.70;;;19.30;71.70;;;;;;5077461;28;20052;-81
2022/05/16 07:45:27;;;;;;;12.48;4.90;;;19.30;71.70;;;;;;5075042;28;20062;-81
2022/05/16 07:47:55;;;;;;;15.45;5.07;;;19.30;71.50;;;;;;5070945;28;20476;-80
2022/05/16 07:50:23;;;;;;;15.70;5.13;;;19.30;71.40;;;;;;5079497;28;20056;-81
2022/05/16 07:52:50;;;;;;;12.05;4.70;;;19.40;71.20;;;;;;5074923;28;20396;-81
2022/05/16 07:55:21;;;;;;;12.45;5.07;;;19.40;71.10;;;;;;5075239;28;20049;-81
2022/05/16 07:57:47;;;;;;;17.33;5.30;;;19.40;71.10;;;;;;5075216;28;20495;-80
2022/05/16 08:00:17;;;;;;;14.20;5.30;;;19.40;71.10;;;;;;5073094;28;20085;-81
2022/05/16 08:02:43;;;;;;;14.07;4.88;;;19.40;71.00;;;;;;5073285;28;20464;-81
2022/05/16 08:05:15;;;;;;;17.13;4.90;;;19.50;70.90;;;;;;5076811;28;20056;-80
2022/05/16 08:10:31;;;;;;;13.80;4.70;;;19.50;70.70;;;;;;5074715;28;20399;-80
2022/05/16 08:13:02;;;;;;;14.63;4.70;;;19.50;70.50;;;;;;5074867;28;20044;-81
2022/05/16 08:15:30;;;;;;;14.07;4.85;;;19.60;70.40;;;;;;5074759;28;20072;-81
2022/05/16 08:17:58;;;;;;;12.18;4.38;;;19.60;70.40;;;;;;5070037;28;20095;-81
2022/05/16 08:20:26;;;;;;;10.20;4.68;;;19.60;70.40;;;;;;5077744;28;20048;-81
2022/05/16 08:22:53;;;;;;;12.75;3.97;;;19.60;70.20;;;;;;5076122;28;20098;-81
2022/05/16 08:25:20;;;;;;;13.02;4.35;;;19.70;70.10;;;;;;5074756;28;20049;-81
2022/05/16 08:27:50;;;;;;;16.65;4.07;;;19.60;70.00;;;;;;5074440;28;20048;-81
2022/05/16 08:30:19;;;;;;;17.15;4.82;;;19.70;70.00;;;;;;5073266;28;20097;-81
2022/05/16 08:32:46;;;;;;;7.85;3.10;;;19.70;69.90;;;;;;5072249;28;20041;-81
2022/05/16 08:35:14;;;;;;;9.23;3.80;;;19.80;69.90;;;;;;5078019;28;20086;-81
2022/05/16 08:40:45;;;;;;;9.23;3.10;;;19.80;69.60;;;;;;5074771;28;20049;-81
2022/05/16 08:43:16;;;;;;;12.43;3.45;;;19.80;69.50;;;;;;5074056;28;20091;-81
2022/05/16 08:45:59;;;;;;;8.35;3.40;;;19.90;69.50;;;;;;5074308;28;20048;-81
2022/05/16 08:48:36;;;;;;;8.73;3.47;;;19.90;69.50;;;;;;5074518;28;20059;-81
2022/05/16 08:51:13;;;;;;;9.32;3.13;;;19.90;69.40;;;;;;5071174;28;20307;-81
2022/05/16 08:53:49;;;;;;;15.07;3.60;;;19.90;69.30;;;;;;5073271;28;20048;-81
2022/05/16 08:56:22;;;;;;;11.13;3.08;;;19.90;69.10;;;;;;5077783;28;20082;-81
2022/05/16 08:58:58;;;;;;;10.30;2.92;;;20.00;69.00;;;;;;5073690;28;20426;-81
2022/05/16 09:01:31;;;;;;;8.32;3.08;;;20.00;68.70;;;;;;5074378;28;20102;-82
2022/05/16 09:04:07;;;;;;;10.20;3.05;;;20.00;68.50;;;;;;5073871;28;20066;-81
2022/05/16 09:06:39;;;;;;;8.30;3.38;;;20.00;68.30;;;;;;5074131;28;20579;-81
2022/05/16 09:09:11;;;;;;;9.13;2.90;;;20.00;68.20;;;;;;5071383;28;20458;-82
2022/05/16 09:11:46;;;;;;;9.15;3.35;;;20.10;68.00;;;;;;5073605;28;20506;-82
2022/05/16 09:14:45;;;;;;;13.75;3.50;;;20.10;68.00;;;;;;5077098;28;20522;-81
2022/05/16 09:17:48;;;;;;;10.38;3.17;;;20.10;67.80;;;;;;5073910;28;20461;-82
2022/05/16 09:20:25;;;;;;;10.73;2.97;;;20.10;67.70;;;;;;5077249;28;20052;-81
2022/05/16 09:23:02;;;;;;;8.30;2.85;;;20.10;67.70;;;;;;5073842;28;20102;-81
2022/05/16 09:25:52;;;;;;;11.27;3.05;;;20.00;67.60;;;;;;5073271;28;20052;-81
2022/05/16 09:28:37;;;;;;;10.40;3.67;;;20.10;67.60;;;;;;5073253;28;20044;-81
2022/05/16 09:31:16;;;;;;;9.10;3.00;;;20.10;67.60;;;;;;5073502;28;20395;-81
2022/05/16 09:33:46;;;;;;;13.45;3.08;;;20.10;67.60;;;;;;5073572;28;20059;-81
2022/05/16 09:36:18;;;;;;;12.90;3.65;;;20.10;67.50;;;;;;5072006;28;20049;-81
2022/05/16 09:38:45;;;;;;;8.95;3.08;;;20.10;67.50;;;;;;5071936;28;20052;-81
2022/05/16 09:41:20;;;;;;;9.30;3.50;;;20.10;67.40;;;;;;5077354;28;20396;-81
2022/05/16 09:44:09;;;;;;;10.93;3.25;;;20.10;67.40;;;;;;5074875;28;20109;-81
2022/05/16 09:46:35;;;;;;;11.48;3.42;;;20.10;67.40;;;;;;5073514;28;20056;-81
2022/05/16 09:49:10;;;;;;;9.15;2.97;;;20.10;67.30;;;;;;5073278;28;20040;-81
2022/05/16 09:51:49;;;;;;;10.15;3.00;;;20.10;67.30;;;;;;5072994;28;20105;-81
2022/05/16 09:54:37;;;;;;;9.93;2.35;;;20.10;67.30;;;;;;5071307;28;20044;-82
2022/05/16 09:57:05;;;;;;;8.10;2.70;;;20.10;67.30;;;;;;5056149;28;20041;-81
2022/05/16 09:59:43;;;;;;;8.77;3.17;;;20.10;67.30;;;;;;5074011;28;20399;-81
2022/05/16 10:02:24;;;;;;;10.18;3.10;;;20.10;67.30;;;;;;5076255;28;20048;-81
2022/05/16 10:05:00;;;;;;;8.55;2.67;;;20.10;67.30;;;;;;5072588;28;20102;-81
2022/05/16 10:08:14;;;;;;;12.57;3.17;;;20.20;67.30;;;;;;5072689;28;20131;-81
2022/05/16 10:10:47;;;;;;;13.02;2.78;;;20.20;67.20;;;;;;5072239;28;20048;-81
2022/05/16 10:13:15;;;;;;;10.63;3.00;;;20.20;67.10;;;;;;5073100;28;20037;-81
2022/05/16 10:15:44;;;;;;;11.27;2.63;;;20.20;67.00;;;;;;5072627;28;20510;-81
2022/05/16 10:18:16;;;;;;;7.55;2.30;;;20.20;67.00;;;;;;5072102;28;20041;-81
2022/05/16 10:20:50;;;;;;;9.45;2.70;;;20.20;67.00;;;;;;5070880;28;20102;-82
2022/05/16 10:23:24;;;;;;;7.20;2.50;;;20.20;66.90;;;;;;5076098;28;20053;-82
2022/05/16 10:25:55;;;;;;;8.25;2.70;;;20.30;66.90;;;;;;5074862;28;20094;-81
2022/05/16 10:28:46;;;;;;;11.93;3.00;;;20.30;66.80;;;;;;5072512;28;20563;-80
2022/05/16 10:34:18;;;;;;;7.55;2.28;;;20.40;66.70;;;;;;5072317;28;20044;-79
2022/05/16 10:36:50;;;;;;;9.40;2.20;;;20.40;66.70;;;;;;5072342;28;20055;-80
2022/05/16 10:39:28;;;;;;;7.95;2.50;;;20.40;66.70;;;;;;5071699;28;20464;-80
2022/05/16 10:42:00;;;;;;;11.85;2.78;;;20.50;66.70;;;;;;5052114;28;20045;-80
2022/05/16 10:44:43;;;;;;;9.20;2.35;;;20.50;66.60;;;;;;5074693;28;20473;-80
2022/05/16 10:47:13;;;;;;;9.88;2.65;;;20.60;66.60;;;;;;5074958;28;20044;-79
2022/05/16 10:50:02;;;;;;;12.70;2.55;;;20.60;66.40;;;;;;5071961;28;20055;-79
2022/05/16 10:52:46;;;;;;;11.63;2.30;;;20.70;66.10;;;;;;5071430;28;20106;-80
2022/05/16 10:55:14;;;;;;;11.00;2.17;;;20.80;65.80;;;;;;5072161;28;20094;-80
2022/05/16 10:58:13;;;;;;;7.43;2.22;;;20.80;65.60;;;;;;5072200;28;20105;-79
2022/05/16 11:01:25;;;;;;;12.18;2.42;;;20.90;65.40;;;;;;5073872;28;20055;-79
2022/05/16 11:04:22;;;;;;;8.40;2.47;;;20.90;65.20;;;;;;5032523;28;20049;-80
2022/05/16 11:07:16;;;;;;;6.50;2.00;;;21.00;65.10;;;;;;5032163;28;20108;-80
2022/05/16 11:09:57;;;;;;;6.27;1.97;;;21.10;65.00;;;;;;5032529;28;20099;-80
2022/05/16 11:12:29;;;;;;;7.47;2.10;;;21.10;64.90;;;;;;5031965;28;20357;-82
2022/05/16 11:15:07;;;;;;;6.35;1.95;;;21.30;64.90;;;;;;5028442;28;20041;-80
2022/05/16 11:17:41;;;;;;;10.55;2.65;;;21.30;64.80;;;;;;5030905;28;20085;-79
2022/05/16 11:20:26;;;;;;;6.43;1.90;;;21.40;64.70;;;;;;5032010;28;20146;-80
2022/05/16 11:23:19;;;;;;;8.10;2.08;;;21.40;64.50;;;;;;5032390;28;20475;-81
2022/05/16 11:25:59;;;;;;;8.10;2.28;;;21.60;64.30;;;;;;5032092;28;20045;-80
2022/05/16 11:29:17;;;;;;;6.57;1.88;;;21.70;64.10;;;;;;5013225;28;20050;-79
2022/05/16 11:31:40;;;;;;;7.57;1.90;;;21.80;63.90;;;;;;5032344;28;20057;-80
2022/05/16 11:34:18;;;;;;;8.23;1.70;;;21.80;63.60;;;;;;5032329;28;20064;-80
2022/05/16 11:36:54;;;;;;;4.63;1.65;;;21.90;63.40;;;;;;5032004;28;20108;-80
2022/05/16 11:39:39;;;;;;;5.78;1.90;;;22.00;63.20;;;;;;5038658;28;20048;-80
2022/05/16 11:42:24;;;;;;;6.75;1.58;;;22.10;62.90;;;;;;5034779;28;20503;-80
2022/05/16 11:45:17;;;;;;;5.72;1.63;;;22.20;62.60;;;;;;5047999;28;20099;-80
2022/05/16 11:47:52;;;;;;;7.50;1.70;;;22.40;62.30;;;;;;5063567;28;20087;-80
2022/05/16 11:50:59;;;;;;;9.07;1.67;;;22.40;62.10;;;;;;5063279;28;20135;-80
2022/05/16 11:53:44;;;;;;;7.28;1.83;;;22.50;61.70;;;;;;5062750;28;20068;-80
2022/05/16 12:02:35;;;;;;;6.50;1.63;;;22.80;60.90;;;;;;5054290;28;20049;-80
2022/05/16 12:05:02;;;;;;;5.55;1.48;;;22.90;60.60;;;;;;5054787;28;20086;-80
2022/05/16 12:07:46;;;;;;;7.65;1.90;;;22.90;60.50;;;;;;5051117;28;20057;-81
2022/05/16 12:10:15;;;;;;;3.95;1.10;;;23.00;60.30;;;;;;5051154;28;20041;-81
2022/05/16 12:13:18;;;;;;;11.55;1.60;;;23.10;60.10;;;;;;5051261;28;20102;-81
2022/05/16 12:15:46;;;;;;;11.32;1.90;;;23.20;59.80;;;;;;5050902;28;20048;-81
2022/05/16 12:18:40;;;;;;;7.30;1.67;;;23.30;59.60;;;;;;5049281;28;20132;-80
2022/05/16 12:21:13;;;;;;;4.90;1.30;;;23.30;59.40;;;;;;5034301;28;20045;-80
2022/05/16 12:23:48;;;;;;;5.53;1.30;;;23.40;59.10;;;;;;5050599;28;20053;-80
2022/05/16 12:26:27;;;;;;;5.55;1.40;;;23.50;59.00;;;;;;5058017;28;20076;-81
2022/05/16 12:29:15;;;;;;;9.60;1.98;;;23.50;58.80;;;;;;5056141;28;20049;-80
2022/05/16 12:31:45;;;;;;;4.53;1.40;;;23.70;58.50;;;;;;5054488;28;20106;-80
2022/05/16 12:34:13;;;;;;;3.83;1.27;;;23.70;58.30;;;;;;5054511;28;20041;-80
2022/05/16 12:36:40;;;;;;;5.60;1.88;;;23.80;58.10;;;;;;5054786;28;20045;-80
2022/05/16 12:39:29;;;;;;;6.05;1.27;;;23.90;58.00;;;;;;5051895;28;20099;-80
2022/05/16 12:42:19;;;;;;;4.47;1.27;;;23.90;57.80;;;;;;5034111;28;20053;-81
2022/05/16 12:45:02;;;;;;;5.00;1.25;;;24.00;57.60;;;;;;5051657;28;20519;-81
2022/05/16 12:47:45;;;;;;;4.70;1.33;;;24.10;57.40;;;;;;5066107;28;20056;-80
2022/05/16 12:50:48;;;;;;;8.70;1.67;;;24.20;57.20;;;;;;5056044;28;20099;-81
2022/05/16 12:53:53;;;;;;;6.03;1.50;;;24.30;57.10;;;;;;5056094;28;20537;-81
2022/05/16 12:56:36;;;;;;;6.13;1.63;;;24.30;56.90;;;;;;5055690;28;20739;-80
2022/05/16 12:59:30;;;;;;;6.20;1.80;;;24.40;56.80;;;;;;5055895;28;20044;-81
2022/05/16 13:02:16;;;;;;;;;;;24.50;56.70;;;;;;5055155;28;20114;-81
2022/05/16 13:04:57;;;;;;;5.15;1.38;;;24.60;56.60;;;;;;5053670;28;19927;-82
2022/05/16 13:07:52;;;;;;;5.25;1.38;;;24.70;56.40;;;;;;5035371;28;20102;-81
2022/05/16 13:10:40;;;;;;;5.32;1.60;;;24.80;56.30;;;;;;5054607;28;20041;-81
2022/05/16 13:13:07;;;;;;;4.25;1.60;;;24.90;56.00;;;;;;5054794;28;20103;-81
2022/05/16 13:15:42;;;;;;;7.03;1.77;;;24.90;55.70;;;;;;5054597;28;20078;-81
2022/05/16 13:18:21;;;;;;;6.20;1.73;;;25.10;55.40;;;;;;5051762;28;20049;-81
2022/05/16 13:20:51;;;;;;;4.63;1.77;;;25.20;55.30;;;;;;5050569;28;20412;-81
2022/05/16 13:23:19;;;;;;;6.10;1.70;;;25.20;55.10;;;;;;5055733;28;20118;-81
2022/05/16 13:31:33;;;;;;;10.80;1.67;;;25.40;54.60;;;;;;5051402;28;20045;-81
2022/05/16 13:34:02;;;;;;;5.68;1.65;;;25.40;54.50;;;;;;5054581;28;20072;-81
2022/05/16 13:36:29;;;;;;;6.03;1.40;;;25.40;54.40;;;;;;5053349;28;20110;-81
2022/05/16 13:39:06;;;;;;;5.90;1.73;;;25.40;54.30;;;;;;5049203;28;20106;-81
2022/05/16 13:41:33;;;;;;;7.32;2.13;;;25.40;54.20;;;;;;5054419;28;20045;-81
2022/05/16 13:44:00;;;;;;;10.48;2.05;;;25.40;54.10;;;;;;5054880;28;20537;-80
2022/05/16 13:46:29;;;;;;;4.93;1.42;;;25.40;54.00;;;;;;5053344;28;20079;-81